createdAt,value
2018-12-14T00:00:29.938Z,1005.60
2018-12-14T00:01:29.910Z,1005.59
2018-12-14T00:02:29.903Z,1005.55
2018-12-14T00:03:29.908Z,1005.56
2018-12-14T00:04:29.878Z,1005.57
2018-12-14T00:05:29.870Z,1005.54
2018-12-14T00:06:29.861Z,1005.48
2018-12-14T00:07:29.844Z,1005.51
2018-12-14T00:08:29.836Z,1005.53
2018-12-14T00:09:29.849Z,1005.48
2018-12-14T00:10:29.814Z,1005.51
2018-12-14T00:11:29.811Z,1005.56
2018-12-14T00:12:29.797Z,1005.51
2018-12-14T00:13:29.804Z,1005.47
2018-12-14T00:14:29.780Z,1005.58
2018-12-14T00:15:29.819Z,1005.56
2018-12-14T00:16:29.775Z,1005.58
2018-12-14T00:17:29.745Z,1005.55
2018-12-14T00:18:29.734Z,1005.48
2018-12-14T00:19:29.749Z,1005.52
2018-12-14T00:20:29.716Z,1005.52
2018-12-14T00:21:29.721Z,1005.54
2018-12-14T00:22:29.701Z,1005.51
2018-12-14T00:23:29.704Z,1005.50
2018-12-14T00:24:29.677Z,1005.55
2018-12-14T00:25:29.664Z,1005.53
2018-12-14T00:26:29.674Z,1005.50
2018-12-14T00:27:29.692Z,1005.48
2018-12-14T00:28:29.648Z,1005.49
2018-12-14T00:29:29.686Z,1005.48
2018-12-14T00:30:29.608Z,1005.53
2018-12-14T00:31:29.604Z,1005.54
2018-12-14T00:32:29.595Z,1005.52
2018-12-14T00:33:29.600Z,1005.54
2018-12-14T00:34:29.573Z,1005.56
2018-12-14T00:35:29.555Z,1005.53
2018-12-14T00:36:29.547Z,1005.55
2018-12-14T00:37:29.539Z,1005.54
2018-12-14T00:38:29.548Z,1005.53
2018-12-14T00:39:29.514Z,1005.55
2018-12-14T00:40:29.507Z,1005.58
2018-12-14T00:41:29.496Z,1005.64
2018-12-14T00:42:29.482Z,1005.61
2018-12-14T00:43:29.495Z,1005.63
2018-12-14T00:44:29.483Z,1005.65
2018-12-14T00:45:29.454Z,1005.70
2018-12-14T00:46:29.448Z,1005.73
2018-12-14T00:47:29.454Z,1005.72
2018-12-14T00:48:29.421Z,1005.69
2018-12-14T00:49:29.411Z,1005.72
2018-12-14T00:50:29.397Z,1005.75
2018-12-14T00:51:29.393Z,1005.77
2018-12-14T00:52:29.381Z,1005.80
2018-12-14T00:53:29.385Z,1005.84
2018-12-14T00:54:29.354Z,1005.88
2018-12-14T00:55:29.353Z,1005.86
2018-12-14T00:56:29.338Z,1005.85
2018-12-14T00:57:29.327Z,1005.85
2018-12-14T00:58:29.337Z,1005.83
2018-12-14T00:59:29.319Z,1005.82
2018-12-14T01:00:29.295Z,1005.88
2018-12-14T01:01:29.286Z,1005.91
2018-12-14T01:02:29.275Z,1005.91
2018-12-14T01:03:29.271Z,1005.88
2018-12-14T01:04:29.340Z,1005.94
2018-12-14T01:05:29.248Z,1005.89
2018-12-14T01:06:29.236Z,1005.91
2018-12-14T01:07:29.216Z,1005.90
2018-12-14T01:08:29.208Z,1005.88
2018-12-14T01:09:29.217Z,1005.93
2018-12-14T01:10:29.191Z,1005.93
2018-12-14T01:11:29.175Z,1005.91
2018-12-14T01:12:29.164Z,1005.92
2018-12-14T01:13:29.157Z,1005.91
2018-12-14T01:14:29.164Z,1005.90
2018-12-14T01:15:29.136Z,1005.84
2018-12-14T01:16:29.124Z,1005.84
2018-12-14T01:17:29.112Z,1005.84
2018-12-14T01:18:29.104Z,1005.82
2018-12-14T01:19:29.089Z,1005.86
2018-12-14T01:20:29.097Z,1005.87
2018-12-14T01:21:29.084Z,1005.85
2018-12-14T01:22:29.054Z,1005.86
2018-12-14T01:23:29.050Z,1005.85
2018-12-14T01:24:29.039Z,1005.80
2018-12-14T01:25:29.041Z,1005.86
2018-12-14T01:26:29.011Z,1005.85
2018-12-14T01:27:29.007Z,1005.88
2018-12-14T01:28:28.994Z,1005.86
2018-12-14T01:29:28.984Z,1005.85
2018-12-14T01:30:29.001Z,1005.85
2018-12-14T01:31:28.959Z,1005.82
2018-12-14T01:32:28.949Z,1005.84
2018-12-14T01:33:28.938Z,1005.80
2018-12-14T01:34:28.926Z,1005.84
2018-12-14T01:35:28.921Z,1005.90
2018-12-14T01:36:28.934Z,1005.90
2018-12-14T01:37:28.897Z,1005.87
2018-12-14T01:38:28.901Z,1005.90
2018-12-14T01:39:28.871Z,1005.92
2018-12-14T01:40:28.864Z,1005.93
2018-12-14T01:41:28.856Z,1005.88
2018-12-14T01:42:28.864Z,1005.94
2018-12-14T01:43:28.834Z,1005.90
2018-12-14T01:44:28.820Z,1005.96
2018-12-14T01:45:28.828Z,1005.93
2018-12-14T01:46:28.795Z,1005.97
2018-12-14T01:47:28.792Z,1005.90
2018-12-14T01:48:28.779Z,1005.93
2018-12-14T01:49:28.768Z,1005.94
2018-12-14T01:50:28.785Z,1005.90
2018-12-14T01:51:28.743Z,1005.93
2018-12-14T01:52:28.734Z,1005.86
2018-12-14T01:53:28.723Z,1005.87
2018-12-14T01:54:28.709Z,1005.91
2018-12-14T01:55:28.706Z,1005.86
2018-12-14T01:56:28.709Z,1005.87
2018-12-14T01:57:28.678Z,1005.87
2018-12-14T01:58:28.692Z,1005.85
2018-12-14T01:59:28.664Z,1005.85
2018-12-14T02:00:28.650Z,1005.78
2018-12-14T02:01:28.640Z,1005.84
2018-12-14T02:02:28.631Z,1005.76
2018-12-14T02:03:28.614Z,1005.82
2018-12-14T02:04:28.621Z,1005.74
2018-12-14T02:05:28.593Z,1005.78
2018-12-14T02:06:28.598Z,1005.79
2018-12-14T02:07:28.575Z,1005.74
2018-12-14T02:08:28.563Z,1005.76
2018-12-14T02:09:28.569Z,1005.72
2018-12-14T02:10:28.545Z,1005.72
2018-12-14T02:11:28.546Z,1005.76
2018-12-14T02:12:28.518Z,1005.74
2018-12-14T02:13:28.510Z,1005.75
2018-12-14T02:14:28.501Z,1005.73
2018-12-14T02:15:28.501Z,1005.73
2018-12-14T02:16:28.480Z,1005.74
2018-12-14T02:17:28.464Z,1005.72
2018-12-14T02:18:28.450Z,1005.71
2018-12-14T02:19:28.447Z,1005.69
2018-12-14T02:20:28.451Z,1005.69
2018-12-14T02:21:28.441Z,1005.68
2018-12-14T02:22:28.412Z,1005.75
2018-12-14T02:23:28.399Z,1005.72
2018-12-14T02:24:28.386Z,1005.73
2018-12-14T02:25:28.395Z,1005.72
2018-12-14T02:26:28.392Z,1005.74
2018-12-14T02:27:28.359Z,1005.78
2018-12-14T02:28:28.353Z,1005.71
2018-12-14T02:29:28.332Z,1005.75
2018-12-14T02:30:28.323Z,1005.72
2018-12-14T02:31:28.316Z,1005.74
2018-12-14T02:32:28.327Z,1005.72
2018-12-14T02:33:28.304Z,1005.71
2018-12-14T02:34:28.284Z,1005.71
2018-12-14T02:35:28.272Z,1005.70
2018-12-14T02:36:28.277Z,1005.71
2018-12-14T02:37:28.262Z,1005.72
2018-12-14T02:38:28.238Z,1005.70
2018-12-14T02:39:28.231Z,1005.68
2018-12-14T02:40:28.221Z,1005.72
2018-12-14T02:41:28.228Z,1005.68
2018-12-14T02:42:28.201Z,1005.67
2018-12-14T02:43:28.185Z,1005.70
2018-12-14T02:44:28.172Z,1005.67
2018-12-14T02:45:28.168Z,1005.69
2018-12-14T02:46:28.172Z,1005.66
2018-12-14T02:47:28.168Z,1005.67
2018-12-14T02:48:28.130Z,1005.67
2018-12-14T02:49:28.118Z,1005.69
2018-12-14T02:50:28.111Z,1005.70
2018-12-14T02:51:28.104Z,1005.69
2018-12-14T02:52:28.093Z,1005.70
2018-12-14T02:53:28.100Z,1005.71
2018-12-14T02:54:28.069Z,1005.71
2018-12-14T02:55:28.059Z,1005.71
2018-12-14T02:56:28.045Z,1005.70
2018-12-14T02:57:28.036Z,1005.69
2018-12-14T02:58:28.039Z,1005.69
2018-12-14T02:59:28.018Z,1005.72
2018-12-14T03:00:28.007Z,1005.65
2018-12-14T03:01:28.025Z,1005.66
2018-12-14T03:02:27.983Z,1005.66
2018-12-14T03:03:27.993Z,1005.66
2018-12-14T03:04:27.988Z,1005.67
2018-12-14T03:05:27.954Z,1005.67
2018-12-14T03:06:27.961Z,1005.69
2018-12-14T03:07:27.950Z,1005.68
2018-12-14T03:08:27.919Z,1005.66
2018-12-14T03:09:27.908Z,1005.64
2018-12-14T03:10:27.912Z,1005.67
2018-12-14T03:11:27.917Z,1005.66
2018-12-14T03:12:27.882Z,1005.66
2018-12-14T03:13:27.871Z,1005.67
2018-12-14T03:14:27.861Z,1005.63
2018-12-14T03:15:27.844Z,1005.62
2018-12-14T03:16:27.841Z,1005.66
2018-12-14T03:17:27.866Z,1005.63
2018-12-14T03:18:27.819Z,1005.58
2018-12-14T03:19:27.800Z,1005.59
2018-12-14T03:20:27.791Z,1005.64
2018-12-14T03:21:27.806Z,1005.62
2018-12-14T03:22:27.769Z,1005.61
2018-12-14T03:23:27.764Z,1005.59
2018-12-14T03:24:27.751Z,1005.61
2018-12-14T03:25:27.742Z,1005.55
2018-12-14T03:26:27.752Z,1005.59
2018-12-14T03:27:27.715Z,1005.58
2018-12-14T03:28:27.707Z,1005.54
2018-12-14T03:29:27.698Z,1005.54
2018-12-14T03:30:27.686Z,1005.57
2018-12-14T03:31:27.739Z,1005.54
2018-12-14T03:32:27.669Z,1005.54
2018-12-14T03:33:27.704Z,1005.54
2018-12-14T03:34:27.644Z,1005.52
2018-12-14T03:35:27.643Z,1005.54
2018-12-14T03:36:27.644Z,1005.59
2018-12-14T03:37:27.625Z,1005.52
2018-12-14T03:38:27.606Z,1005.51
2018-12-14T03:39:27.588Z,1005.52
2018-12-14T03:40:27.581Z,1005.54
2018-12-14T03:41:27.588Z,1005.55
2018-12-14T03:42:33.966Z,1005.53
2018-12-14T03:43:28.575Z,1005.54
2018-12-14T03:44:27.543Z,1005.57
2018-12-14T03:45:27.532Z,1005.55
2018-12-14T03:46:27.521Z,1005.56
2018-12-14T03:47:27.504Z,1005.57
2018-12-14T03:48:27.495Z,1005.54
2018-12-14T03:49:27.506Z,1005.57
2018-12-14T03:50:27.479Z,1005.57
2018-12-14T03:51:27.461Z,1005.53
2018-12-14T03:52:27.472Z,1005.54
2018-12-14T03:53:27.443Z,1005.55
2018-12-14T03:54:27.457Z,1005.53
2018-12-14T03:55:27.425Z,1005.54
2018-12-14T03:56:27.412Z,1005.59
2018-12-14T03:57:27.401Z,1005.59
2018-12-14T03:58:27.393Z,1005.60
2018-12-14T03:59:27.406Z,1005.56
2018-12-14T04:00:27.368Z,1005.56
2018-12-14T04:01:27.358Z,1005.54
2018-12-14T04:02:27.366Z,1005.52
2018-12-14T04:03:27.340Z,1005.53
2018-12-14T04:04:27.328Z,1005.54
2018-12-14T04:05:27.324Z,1005.54
2018-12-14T04:06:27.304Z,1005.57
2018-12-14T04:07:27.316Z,1005.52
2018-12-14T04:08:27.284Z,1005.59
2018-12-14T04:09:27.300Z,1005.52
2018-12-14T04:10:27.265Z,1005.57
2018-12-14T04:11:27.247Z,1005.56
2018-12-14T04:12:27.238Z,1005.48
2018-12-14T04:13:27.228Z,1005.50
2018-12-14T04:14:27.215Z,1005.53
2018-12-14T04:15:27.228Z,1005.50
2018-12-14T04:16:27.198Z,1005.55
2018-12-14T04:17:27.211Z,1005.54
2018-12-14T04:18:27.178Z,1005.52
2018-12-14T04:19:27.161Z,1005.54
2018-12-14T04:20:27.153Z,1005.55
2018-12-14T04:21:27.144Z,1005.58
2018-12-14T04:22:27.153Z,1005.54
2018-12-14T04:23:27.135Z,1005.56
2018-12-14T04:24:27.109Z,1005.55
2018-12-14T04:25:27.097Z,1005.55
2018-12-14T04:26:27.103Z,1005.54
2018-12-14T04:27:27.099Z,1005.51
2018-12-14T04:28:27.086Z,1005.49
2018-12-14T04:29:27.056Z,1005.49
2018-12-14T04:30:27.048Z,1005.47
2018-12-14T04:31:27.033Z,1005.46
2018-12-14T04:32:27.067Z,1005.46
2018-12-14T04:33:27.015Z,1005.43
2018-12-14T04:34:26.999Z,1005.50
2018-12-14T04:35:26.996Z,1005.42
2018-12-14T04:36:26.983Z,1005.40
2018-12-14T04:37:26.986Z,1005.44
2018-12-14T04:38:26.974Z,1005.42
2018-12-14T04:39:26.951Z,1005.47
2018-12-14T04:40:26.940Z,1005.45
2018-12-14T04:41:26.931Z,1005.48
2018-12-14T04:42:26.945Z,1005.51
2018-12-14T04:43:26.904Z,1005.49
2018-12-14T04:44:26.895Z,1005.52
2018-12-14T04:45:26.884Z,1005.50
2018-12-14T04:46:26.870Z,1005.55
2018-12-14T04:47:26.868Z,1005.60
2018-12-14T04:48:26.872Z,1005.54
2018-12-14T04:49:26.843Z,1005.57
2018-12-14T04:50:26.835Z,1005.56
2018-12-14T04:51:26.821Z,1005.57
2018-12-14T04:52:26.828Z,1005.57
2018-12-14T04:53:26.805Z,1005.57
2018-12-14T04:54:26.792Z,1005.59
2018-12-14T04:55:26.800Z,1005.58
2018-12-14T04:56:26.766Z,1005.62
2018-12-14T04:57:26.777Z,1005.63
2018-12-14T04:58:26.754Z,1005.58
2018-12-14T04:59:26.764Z,1005.61
2018-12-14T05:00:26.727Z,1005.62
2018-12-14T05:01:26.716Z,1005.62
2018-12-14T05:02:26.710Z,1005.60
2018-12-14T05:03:26.692Z,1005.63
2018-12-14T05:04:26.683Z,1005.66
2018-12-14T05:05:26.688Z,1005.61
2018-12-14T05:06:26.677Z,1005.65
2018-12-14T05:07:26.671Z,1005.65
2018-12-14T05:08:26.641Z,1005.67
2018-12-14T05:09:26.628Z,1005.64
2018-12-14T05:10:26.631Z,1005.68
2018-12-14T05:11:26.611Z,1005.71
2018-12-14T05:12:26.615Z,1005.66
2018-12-14T05:13:26.595Z,1005.69
2018-12-14T05:14:26.579Z,1005.71
2018-12-14T05:15:26.561Z,1005.72
2018-12-14T05:16:26.552Z,1005.71
2018-12-14T05:17:26.562Z,1005.70
2018-12-14T05:18:26.538Z,1005.70
2018-12-14T05:19:26.541Z,1005.77
2018-12-14T05:20:26.650Z,1005.74
2018-12-14T05:21:26.501Z,1005.78
2018-12-14T05:22:26.510Z,1005.76
2018-12-14T05:23:26.476Z,1005.77
2018-12-14T05:24:26.467Z,1005.71
2018-12-14T05:25:26.480Z,1005.72
2018-12-14T05:26:26.458Z,1005.75
2018-12-14T05:27:26.451Z,1005.75
2018-12-14T05:28:26.424Z,1005.75
2018-12-14T05:29:26.418Z,1005.75
2018-12-14T05:30:26.400Z,1005.77
2018-12-14T05:31:26.396Z,1005.75
2018-12-14T05:32:26.401Z,1005.82
2018-12-14T05:33:26.376Z,1005.78
2018-12-14T05:34:26.363Z,1005.81
2018-12-14T05:35:26.352Z,1005.81
2018-12-14T05:36:26.340Z,1005.79
2018-12-14T05:37:26.363Z,1005.76
2018-12-14T05:38:26.315Z,1005.77
2018-12-14T05:39:26.310Z,1005.82
2018-12-14T05:40:26.315Z,1005.78
2018-12-14T05:41:26.286Z,1005.77
2018-12-14T05:42:26.274Z,1005.80
2018-12-14T05:43:26.286Z,1005.76
2018-12-14T05:44:26.254Z,1005.77
2018-12-14T05:45:26.244Z,1005.76
2018-12-14T05:46:26.236Z,1005.84
2018-12-14T05:47:26.235Z,1005.85
2018-12-14T05:48:26.229Z,1005.83
2018-12-14T05:49:26.199Z,1005.81
2018-12-14T05:50:26.186Z,1005.84
2018-12-14T05:51:26.191Z,1005.80
2018-12-14T05:52:26.186Z,1005.85
2018-12-14T05:53:26.185Z,1005.85
2018-12-14T05:54:26.151Z,1005.86
2018-12-14T05:55:26.137Z,1005.82
2018-12-14T05:56:26.124Z,1005.89
2018-12-14T05:57:26.117Z,1005.87
2018-12-14T05:58:26.114Z,1005.89
2018-12-14T05:59:26.110Z,1005.87
2018-12-14T06:00:26.083Z,1005.88
2018-12-14T06:01:26.078Z,1005.88
2018-12-14T06:02:26.077Z,1005.84
2018-12-14T06:03:26.054Z,1005.83
2018-12-14T06:04:26.059Z,1005.87
2018-12-14T06:05:26.032Z,1005.91
2018-12-14T06:06:26.023Z,1005.86
2018-12-14T06:07:26.021Z,1005.91
2018-12-14T06:08:26.014Z,1005.94
2018-12-14T06:09:25.993Z,1005.93
2018-12-14T06:10:25.976Z,1005.91
2018-12-14T06:11:25.969Z,1005.92
2018-12-14T06:12:25.986Z,1005.88
2018-12-14T06:13:25.945Z,1005.93
2018-12-14T06:14:25.937Z,1005.94
2018-12-14T06:15:25.926Z,1005.99
2018-12-14T06:16:25.913Z,1006.02
2018-12-14T06:17:25.902Z,1006.00
2018-12-14T06:18:25.913Z,1006.02
2018-12-14T06:19:25.877Z,1006.02
2018-12-14T06:20:25.885Z,1006.03
2018-12-14T06:21:25.860Z,1006.04
2018-12-14T06:22:25.874Z,1006.05
2018-12-14T06:23:25.842Z,1006.10
2018-12-14T06:24:25.833Z,1006.07
2018-12-14T06:25:25.823Z,1006.07
2018-12-14T06:26:25.809Z,1006.08
2018-12-14T06:27:25.791Z,1006.09
2018-12-14T06:28:26.083Z,1006.12
2018-12-14T06:29:25.776Z,1006.11
2018-12-14T06:30:25.766Z,1006.14
2018-12-14T06:31:25.748Z,1006.17
2018-12-14T06:32:25.758Z,1006.12
2018-12-14T06:33:25.747Z,1006.12
2018-12-14T06:34:25.717Z,1006.12
2018-12-14T06:35:25.713Z,1006.15
2018-12-14T06:36:25.699Z,1006.12
2018-12-14T06:37:25.701Z,1006.10
2018-12-14T06:38:25.693Z,1006.15
2018-12-14T06:39:25.667Z,1006.18
2018-12-14T06:40:25.659Z,1006.12
2018-12-14T06:41:25.648Z,1006.14
2018-12-14T06:42:25.636Z,1006.12
2018-12-14T06:43:25.639Z,1006.14
2018-12-14T06:44:25.629Z,1006.14
2018-12-14T06:45:25.607Z,1006.22
2018-12-14T06:46:25.593Z,1006.21
2018-12-14T06:47:25.579Z,1006.18
2018-12-14T06:48:25.584Z,1006.19
2018-12-14T06:49:25.563Z,1006.20
2018-12-14T06:50:25.548Z,1006.17
2018-12-14T06:51:25.540Z,1006.18
2018-12-14T06:52:25.550Z,1006.18
2018-12-14T06:53:25.545Z,1006.21
2018-12-14T06:54:25.507Z,1006.20
2018-12-14T06:55:25.495Z,1006.23
2018-12-14T06:56:25.482Z,1006.20
2018-12-14T06:57:25.472Z,1006.24
2018-12-14T06:58:25.463Z,1006.24
2018-12-14T06:59:25.472Z,1006.25
2018-12-14T07:00:25.448Z,1006.21
2018-12-14T07:01:25.429Z,1006.26
2018-12-14T07:02:25.438Z,1006.25
2018-12-14T07:03:25.429Z,1006.27
2018-12-14T07:04:25.442Z,1006.30
2018-12-14T07:05:25.394Z,1006.29
2018-12-14T07:06:25.385Z,1006.32
2018-12-14T07:07:25.367Z,1006.32
2018-12-14T07:08:25.355Z,1006.33
2018-12-14T07:09:25.362Z,1006.38
2018-12-14T07:10:25.340Z,1006.40
2018-12-14T07:11:25.328Z,1006.40
2018-12-14T07:12:25.337Z,1006.40
2018-12-14T07:13:25.309Z,1006.43
2018-12-14T07:14:25.332Z,1006.46
2018-12-14T07:15:25.284Z,1006.42
2018-12-14T07:16:25.270Z,1006.50
2018-12-14T07:17:25.263Z,1006.49
2018-12-14T07:18:25.253Z,1006.44
2018-12-14T07:19:25.277Z,1006.46
2018-12-14T07:20:25.227Z,1006.45
2018-12-14T07:21:25.218Z,1006.46
2018-12-14T07:22:25.226Z,1006.51
2018-12-14T07:23:25.200Z,1006.52
2018-12-14T07:24:25.192Z,1006.54
2018-12-14T07:25:25.181Z,1006.51
2018-12-14T07:26:25.187Z,1006.52
2018-12-14T07:27:25.179Z,1006.56
2018-12-14T07:28:25.142Z,1006.57
2018-12-14T07:29:25.149Z,1006.54
2018-12-14T07:30:25.123Z,1006.58
2018-12-14T07:31:25.115Z,1006.58
2018-12-14T07:32:25.106Z,1006.57
2018-12-14T07:33:25.090Z,1006.60
2018-12-14T07:34:25.104Z,1006.59
2018-12-14T07:35:25.074Z,1006.63
2018-12-14T07:36:25.083Z,1006.61
2018-12-14T07:37:25.078Z,1006.65
2018-12-14T07:38:25.042Z,1006.69
2018-12-14T07:39:25.028Z,1006.65
2018-12-14T07:40:25.015Z,1006.67
2018-12-14T07:41:25.005Z,1006.67
2018-12-14T07:42:25.014Z,1006.64
2018-12-14T07:43:28.214Z,1006.67
2018-12-14T07:44:25.063Z,1006.70
2018-12-14T07:45:24.969Z,1006.70
2018-12-14T07:46:24.963Z,1006.76
2018-12-14T07:47:24.949Z,1006.78
2018-12-14T07:48:24.935Z,1006.78
2018-12-14T07:49:24.945Z,1006.78
2018-12-14T07:50:24.915Z,1006.78
2018-12-14T07:51:25.093Z,1006.80
2018-12-14T07:52:24.890Z,1006.78
2018-12-14T07:53:24.878Z,1006.78
2018-12-14T07:54:24.895Z,1006.76
2018-12-14T07:55:24.862Z,1006.80
2018-12-14T07:56:24.852Z,1006.82
2018-12-14T07:57:24.843Z,1006.80
2018-12-14T07:58:24.829Z,1006.81
2018-12-14T07:59:24.816Z,1006.82
2018-12-14T08:00:24.828Z,1006.89
2018-12-14T08:01:24.793Z,1006.86
2018-12-14T08:02:24.802Z,1006.87
2018-12-14T08:03:24.776Z,1006.89
2018-12-14T08:04:24.772Z,1006.90
2018-12-14T08:05:24.768Z,1006.94
2018-12-14T08:06:24.742Z,1006.91
2018-12-14T08:07:24.758Z,1006.94
2018-12-14T08:08:24.732Z,1006.95
2018-12-14T08:09:24.723Z,1006.93
2018-12-14T08:10:24.722Z,1006.98
2018-12-14T08:11:24.691Z,1006.96
2018-12-14T08:12:24.676Z,1007.00
2018-12-14T08:13:24.668Z,1006.94
2018-12-14T08:14:24.658Z,1007.01
2018-12-14T08:15:24.665Z,1007.00
2018-12-14T08:16:24.643Z,1007.03
2018-12-14T08:17:24.633Z,1007.03
2018-12-14T08:18:24.617Z,1007.03
2018-12-14T08:19:24.625Z,1007.06
2018-12-14T08:20:24.616Z,1007.06
2018-12-14T08:21:24.588Z,1007.07
2018-12-14T08:22:24.577Z,1007.08
2018-12-14T08:23:24.562Z,1007.08
2018-12-14T08:24:24.549Z,1007.06
2018-12-14T08:25:24.564Z,1007.09
2018-12-14T08:26:24.534Z,1007.11
2018-12-14T08:27:24.522Z,1007.07
2018-12-14T08:28:24.513Z,1007.10
2018-12-14T08:29:24.504Z,1007.11
2018-12-14T08:30:24.500Z,1007.09
2018-12-14T08:31:24.495Z,1007.08
2018-12-14T08:32:24.466Z,1007.13
2018-12-14T08:33:24.453Z,1007.13
2018-12-14T08:34:24.478Z,1007.11
2018-12-14T08:35:24.437Z,1007.13
2018-12-14T08:36:24.453Z,1007.17
2018-12-14T08:37:24.428Z,1007.15
2018-12-14T08:38:24.404Z,1007.11
2018-12-14T08:39:24.394Z,1007.12
2018-12-14T08:40:24.397Z,1007.13
2018-12-14T08:41:24.376Z,1007.10
2018-12-14T08:42:24.382Z,1007.14
2018-12-14T08:43:24.351Z,1007.14
2018-12-14T08:44:24.338Z,1007.18
2018-12-14T08:45:24.326Z,1007.17
2018-12-14T08:46:24.317Z,1007.15
2018-12-14T08:47:24.326Z,1007.16
2018-12-14T08:48:24.310Z,1007.21
2018-12-14T08:49:24.296Z,1007.16
2018-12-14T08:50:24.277Z,1007.19
2018-12-14T08:51:24.284Z,1007.22
2018-12-14T08:52:24.253Z,1007.21
2018-12-14T08:53:24.256Z,1007.23
2018-12-14T08:54:24.238Z,1007.19
2018-12-14T08:55:24.222Z,1007.20
2018-12-14T08:56:24.227Z,1007.18
2018-12-14T08:57:24.217Z,1007.17
2018-12-14T08:58:24.191Z,1007.20
2018-12-14T08:59:24.199Z,1007.26
2018-12-14T09:00:24.242Z,1007.21
2018-12-14T09:01:24.180Z,1007.19
2018-12-14T09:02:24.150Z,1007.19
2018-12-14T09:03:24.137Z,1007.22
2018-12-14T09:04:24.125Z,1007.19
2018-12-14T09:05:24.114Z,1007.25
2018-12-14T09:06:24.123Z,1007.24
2018-12-14T09:07:24.713Z,1007.22
2018-12-14T09:08:24.120Z,1007.26
2018-12-14T09:09:24.072Z,1007.23
2018-12-14T09:10:24.064Z,1007.27
2018-12-14T09:11:24.056Z,1007.26
2018-12-14T09:12:24.046Z,1007.28
2018-12-14T09:13:24.270Z,1007.33
2018-12-14T09:14:24.023Z,1007.33
2018-12-14T09:15:24.009Z,1007.31
2018-12-14T09:16:24.013Z,1007.33
2018-12-14T09:17:23.987Z,1007.34
2018-12-14T09:18:23.977Z,1007.41
2018-12-14T09:19:23.970Z,1007.37
2018-12-14T09:20:23.962Z,1007.40
2018-12-14T09:21:23.967Z,1007.44
2018-12-14T09:22:23.945Z,1007.43
2018-12-14T09:23:24.051Z,1007.46
2018-12-14T09:24:23.911Z,1007.46
2018-12-14T09:25:23.907Z,1007.49
2018-12-14T09:26:23.896Z,1007.51
2018-12-14T09:27:23.881Z,1007.52
2018-12-14T09:28:23.888Z,1007.51
2018-12-14T09:29:23.858Z,1007.51
2018-12-14T09:30:23.863Z,1007.53
2018-12-14T09:31:23.841Z,1007.51
2018-12-14T09:32:23.834Z,1007.52
2018-12-14T09:33:23.840Z,1007.60
2018-12-14T09:34:23.809Z,1007.55
2018-12-14T09:35:23.800Z,1007.54
2018-12-14T09:36:23.792Z,1007.51
2018-12-14T09:37:23.772Z,1007.52
2018-12-14T09:38:23.786Z,1007.52
2018-12-14T09:39:23.760Z,1007.53
2018-12-14T09:40:23.748Z,1007.51
2018-12-14T09:41:23.731Z,1007.50
2018-12-14T09:42:23.722Z,1007.52
2018-12-14T09:43:23.731Z,1007.50
2018-12-14T09:44:23.706Z,1007.54
2018-12-14T09:45:23.695Z,1007.55
2018-12-14T09:46:23.681Z,1007.57
2018-12-14T09:47:23.685Z,1007.59
2018-12-14T09:48:23.656Z,1007.57
2018-12-14T09:49:23.663Z,1007.60
2018-12-14T09:50:23.639Z,1007.58
2018-12-14T09:51:23.628Z,1007.53
2018-12-14T09:52:23.636Z,1007.56
2018-12-14T09:53:23.608Z,1007.49
2018-12-14T09:54:23.623Z,1007.53
2018-12-14T09:55:23.583Z,1007.55
2018-12-14T09:56:23.570Z,1007.52
2018-12-14T09:57:23.583Z,1007.52
2018-12-14T09:58:23.555Z,1007.55
2018-12-14T09:59:23.543Z,1007.52
2018-12-14T10:00:23.527Z,1007.53
2018-12-14T10:01:23.517Z,1007.54
2018-12-14T10:02:23.526Z,1007.52
2018-12-14T10:03:23.517Z,1007.46
2018-12-14T10:04:23.503Z,1007.51
2018-12-14T10:05:23.492Z,1007.48
2018-12-14T10:06:23.474Z,1007.53
2018-12-14T10:07:23.474Z,1007.52
2018-12-14T10:08:23.442Z,1007.51
2018-12-14T10:09:23.431Z,1007.52
2018-12-14T10:10:23.422Z,1007.53
2018-12-14T10:11:23.414Z,1007.56
2018-12-14T10:12:23.422Z,1007.54
2018-12-14T10:13:23.389Z,1007.53
2018-12-14T10:14:23.379Z,1007.55
2018-12-14T10:15:23.373Z,1007.56
2018-12-14T10:16:23.392Z,1007.57
2018-12-14T10:17:23.373Z,1007.61
2018-12-14T10:18:23.357Z,1007.57
2018-12-14T10:19:23.326Z,1007.58
2018-12-14T10:20:23.315Z,1007.57
2018-12-14T10:21:23.303Z,1007.60
2018-12-14T10:22:23.318Z,1007.58
2018-12-14T10:23:23.287Z,1007.59
2018-12-14T10:24:23.278Z,1007.54
2018-12-14T10:25:23.268Z,1007.50
2018-12-14T10:26:23.255Z,1007.49
2018-12-14T10:27:23.242Z,1007.49
2018-12-14T10:28:23.274Z,1007.47
2018-12-14T10:29:23.227Z,1007.48
2018-12-14T10:30:23.216Z,1007.46
2018-12-14T10:31:23.201Z,1007.45
2018-12-14T10:32:23.187Z,1007.47
2018-12-14T10:33:23.206Z,1007.42
2018-12-14T10:34:23.169Z,1007.47
2018-12-14T10:35:23.160Z,1007.43
2018-12-14T10:36:23.159Z,1007.39
2018-12-14T10:37:23.152Z,1007.39
2018-12-14T10:38:23.145Z,1007.38
2018-12-14T10:39:23.115Z,1007.40
2018-12-14T10:40:23.103Z,1007.39
2018-12-14T10:41:23.092Z,1007.40
2018-12-14T10:42:23.086Z,1007.38
2018-12-14T10:43:23.096Z,1007.34
2018-12-14T10:44:23.066Z,1007.35
2018-12-14T10:45:23.050Z,1007.36
2018-12-14T10:46:23.044Z,1007.33
2018-12-14T10:47:23.033Z,1007.31
2018-12-14T10:48:23.042Z,1007.35
2018-12-14T10:49:23.014Z,1007.31
2018-12-14T10:50:23.003Z,1007.35
2018-12-14T10:51:22.989Z,1007.27
2018-12-14T10:52:22.976Z,1007.31
2018-12-14T10:53:22.992Z,1007.27
2018-12-14T10:54:22.956Z,1007.22
2018-12-14T10:55:22.951Z,1007.22
2018-12-14T10:56:22.948Z,1007.25
2018-12-14T10:57:22.928Z,1007.23
2018-12-14T10:58:22.935Z,1007.23
2018-12-14T10:59:22.919Z,1007.17
2018-12-14T11:00:22.895Z,1007.23
2018-12-14T11:01:22.888Z,1007.20
2018-12-14T11:02:22.877Z,1007.18
2018-12-14T11:03:22.879Z,1007.15
2018-12-14T11:04:23.923Z,1007.13
2018-12-14T11:05:22.842Z,1007.13
2018-12-14T11:06:22.830Z,1007.12
2018-12-14T11:07:22.825Z,1007.14
2018-12-14T11:08:22.835Z,1007.16
2018-12-14T11:09:22.803Z,1007.10
2018-12-14T11:10:22.804Z,1007.14
2018-12-14T11:11:22.783Z,1007.10
2018-12-14T11:12:22.767Z,1007.09
2018-12-14T11:13:22.756Z,1007.11
2018-12-14T11:14:22.768Z,1007.12
2018-12-14T11:15:22.741Z,1007.16
2018-12-14T11:16:22.735Z,1007.11
2018-12-14T11:17:22.714Z,1007.11
2018-12-14T11:18:22.719Z,1007.07
2018-12-14T11:19:22.708Z,1007.08
2018-12-14T11:20:22.687Z,1007.09
2018-12-14T11:21:22.678Z,1007.12
2018-12-14T11:22:22.666Z,1007.08
2018-12-14T11:23:22.667Z,1007.08
2018-12-14T11:24:22.641Z,1007.11
2018-12-14T11:25:22.648Z,1007.11
2018-12-14T11:26:22.617Z,1007.09
2018-12-14T11:27:22.613Z,1007.13
2018-12-14T11:28:22.603Z,1007.11
2018-12-14T11:29:22.590Z,1007.12
2018-12-14T11:30:22.600Z,1007.10
2018-12-14T11:31:22.564Z,1007.10
2018-12-14T11:32:22.564Z,1007.08
2018-12-14T11:33:22.548Z,1007.13
2018-12-14T11:34:22.540Z,1007.15
2018-12-14T11:35:22.540Z,1007.07
2018-12-14T11:36:22.530Z,1007.08
2018-12-14T11:37:22.507Z,1007.07
2018-12-14T11:38:22.491Z,1007.14
2018-12-14T11:39:22.517Z,1007.10
2018-12-14T11:40:22.483Z,1007.10
2018-12-14T11:41:22.464Z,1007.09
2018-12-14T11:42:22.456Z,1007.09
2018-12-14T11:43:22.444Z,1007.08
2018-12-14T11:44:22.463Z,1007.09
2018-12-14T11:45:22.419Z,1007.05
2018-12-14T11:46:22.405Z,1007.07
2018-12-14T11:47:22.402Z,1007.08
2018-12-14T11:48:22.389Z,1007.06
2018-12-14T11:49:22.394Z,1007.07
2018-12-14T11:50:22.369Z,1007.10
2018-12-14T11:51:22.402Z,1007.11
2018-12-14T11:52:22.346Z,1007.09
2018-12-14T11:53:22.337Z,1007.08
2018-12-14T11:54:22.357Z,1007.09
2018-12-14T11:55:22.309Z,1007.04
2018-12-14T11:56:22.300Z,1007.02
2018-12-14T11:57:22.289Z,1007.05
2018-12-14T11:58:22.277Z,1007.09
2018-12-14T11:59:22.293Z,1007.03
2018-12-14T12:00:22.260Z,1007.08
2018-12-14T12:01:22.267Z,1007.05
2018-12-14T12:02:22.242Z,1007.03
2018-12-14T12:03:22.224Z,1007.05
2018-12-14T12:04:22.218Z,1007.08
2018-12-14T12:05:22.206Z,1007.04